Aérodrome :
LOGIN :

S'inscrire | Disclaimer

   EN    FR    IT 

 










Légende :    VFR   VFR Marginal   IFR   IFR Intensif   IFR Très Intensif
Visi : 
Plafond : 
>= 8 km
>= 3000ft
5 à 8 km
1000 à 3000 ft
1500m à 5 km
500 à 1000 ft
800 à 1500m
200 à 500 ft
< 800m
< 200 ft
Symboles :   Orages  Brouillard  Fortes neiges  Fortes précipitations  Vent > 20 kt
SIGMETs :   Divers  Orages  Givrage  Turbulence  Onde Orograph.  Cendres Volcan.







- Altitude de l'aérodrome : 755 ft
- Code IATA : DRS


EDDC - Dresden Klotzsche

DERNIER METAR :
  • 110050Z 29010KT 240V320 9999 BKN008 02/01 Q1011

METARs EXPIRÉS :
  • 110020Z 29011KT 250V330 9999 VCSH BKN007 BKN013TCU 02/01 Q1011
  • 102350Z 29014KT 250V330 9000 -SHSNRA SCT008 BKN011CB 02/01 Q1011
  • 102320Z 28013KT 240V310 9999 -SHSNRA SCT009 BKN014CB 02/01 Q1011
  • 102250Z 28014G25KT 250V320 9999 -SHSNRA FEW007 BKN013CB 02/01 Q1011 RESHSN
  • 102220Z 27013KT 240V320 9999 -SHGS BKN013CB 03/01 Q1011

TAF TAF EDDC
Valide du 11 à 00h jusqu'au 12 à 00h UTC


102300Z 1100/1124 28015G25KT 8000 BKN015
TEMPO 1100/1106 4000 -SNRA BKN008
BECMG 1106/1109 BKN010
TEMPO 1106/1118 BKN005
BECMG 1113/1116 30011KT
BECMG 1118/1121 BKN008
TEMPO 1118/1124 2000 SNRA BKN004
Pas de NOTAMs connus pour ce terrain.



MET'MAP, la Météo Aéronautique d'un coup d'oeil ! - Copyright ORBIFLY Décembre 2007 - Disclaimer

ORBIFLY MET'MAP TEAM :

Programmation & Développement : Alexandra Zaïnal
Conception & Développement : Baudouin d'Aumeries
Co-Programmation & Développement : Marc-Olivier Méhu
Soutien technique & logistique : Manuel Goepfert

Contact : metmap@orbifly.com




SOURCES & CREDITS :

   NOAA